Latest Weather Observations for Montague Island

IDN60901

Issued at 10:11 am EST Sunday 25 June 2017 (issued every 10 minutes, with the page automatically refreshed every 10 minutes)

About weather observations | Map of Canberra area stations | Latest observations for Canberra area | Other Formats
Station Details ID: 069017 Name: MONTAGUE ISLAND LIGHTHOUSE Lat: -36.25 Lon: 150.23 Height: 52.0 m
Data from the previous 72 hours. | See also: Recent months at Montague Island
Date/Time
EST
Temp
°C
App
Temp
°C
Dew
Point
°C
Rel
Hum
%
Delta-T
°C
Wind Press
QNH
hPa
Press
MSL
hPa
Rain since
9am
mm
Dir  Spd
km/h
Gust
km/h
Spd
kts
Gust
kts
25/10:00am 11.4 5.8 1.1 49 4.3 W 20 24 11 13 1016.7 1016.7 0.0
25/09:30am 11.4 4.6 0.8 48 4.4 W 26 35 14 19 1016.4 1016.4 0.0
25/09:00am 10.4 4.8 1.5 54 3.7 W 20 28 11 15 1016.4 1016.4 0.0
25/08:30am 10.4 5.6 2.5 58 3.4 W 17 20 9 11 1016.3 1016.3 0.0
25/08:00am 10.1 6.4 4.3 67 2.6 W 13 17 7 9 1016.2 1016.2 0.0
25/07:30am 10.3 7.1 5.1 70 2.4 W 11 13 6 7 1016.0 1016.0 0.0
25/07:00am 10.2 6.9 4.8 69 2.4 W 11 15 6 8 1015.9 1015.9 0.0
25/06:30am 10.4 7.6 5.2 70 2.4 W 9 15 5 8 1015.7 1015.7 0.0
25/06:00am 10.6 8.3 5.6 71 2.3 W 7 13 4 7 1015.6 1015.6 0.0
25/05:30am 10.7 8.4 5.5 70 2.4 SW 7 13 4 7 1015.4 1015.4 0.0
25/05:00am 10.8 8.1 5.8 71 2.3 WSW 9 13 5 7 1015.3 1015.3 0.0
25/04:30am 10.9 8.3 6.1 72 2.2 W 9 13 5 7 1015.4 1015.4 0.0
25/04:00am 11.0 8.4 6.0 71 2.3 W 9 13 5 7 1015.4 1015.4 0.0
25/03:30am 11.2 8.7 4.9 65 2.9 SW 7 13 4 7 1015.6 1015.6 0.0
25/03:00am 11.1 8.3 5.0 66 2.8 SW 9 13 5 7 1015.9 1015.9 0.0
25/02:30am 11.1 7.9 5.2 67 2.7 SW 11 15 6 8 1016.1 1016.1 0.0
25/02:00am 11.1 8.1 5.8 70 2.5 SW 11 17 6 9 1016.0 1016.0 0.0
25/01:30am 11.0 7.9 5.7 70 2.5 SSW 11 13 6 7 1016.0 1016.0 0.0
25/01:00am 11.4 8.2 5.1 65 2.9 SW 11 15 6 8 1016.3 1016.3 0.0
25/12:30am 11.5 8.4 5.4 66 2.8 SSW 11 15 6 8 1016.4 1016.4 0.0
25/12:00am 11.4 8.8 5.9 69 2.6 SSW 9 13 5 7 1016.7 1016.7 0.0
 
Date/Time
EST
Temp
°C
App
Temp
°C
Dew
Point
°C
Rel
Hum
%
Delta-T
°C
Wind Press
QNH
hPa
Press
MSL
hPa
Rain since
9am
mm
Dir  Spd
km/h
Gust
km/h
Spd
kts
Gust
kts
24/11:30pm 11.5 8.7 6.8 73 2.2 SW 11 15 6 8 1016.6 1016.6 0.0
24/11:00pm 11.8 9.1 7.3 74 2.2 SW 11 15 6 8 1016.9 1016.9 0.0
24/10:30pm 12.0 9.2 7.1 72 2.4 SW 11 13 6 7 1017.0 1017.0 0.0
24/10:00pm 12.3 9.9 6.8 69 2.6 SSW 9 13 5 7 1017.0 1017.0 0.0
24/09:30pm 12.5 9.9 5.9 64 3.1 SSE 9 13 5 7 1017.0 1017.0 0.0
24/09:00pm 12.7 10.0 5.8 63 3.2 SSE 9 13 5 7 1017.0 1017.0 0.0
24/08:30pm 12.6 10.3 5.5 62 3.3 S 7 11 4 6 1016.9 1016.9 0.0
24/08:00pm 12.6 10.2 5.3 61 3.4 S 7 11 4 6 1016.9 1016.9 0.0
24/07:30pm 12.8 10.2 6.2 64 3.1 SSE 9 15 5 8 1016.8 1016.8 0.0
24/07:00pm 12.7 9.5 5.1 60 3.5 S 11 15 6 8 1016.4 1016.4 0.0
24/06:30pm 12.9 9.6 4.6 57 3.8 S 11 15 6 8 1016.1 1016.1 0.0
24/06:00pm 12.9 9.1 4.1 55 4.0 S 13 17 7 9 1015.9 1015.9 0.0
24/05:30pm 12.9 9.3 4.8 58 3.7 S 13 17 7 9 1015.8 1015.8 0.0
24/05:00pm 12.8 8.7 4.5 57 3.8 S 15 19 8 10 1015.4 1015.4 0.0
24/04:30pm 12.9 8.5 4.6 57 3.8 SSE 17 22 9 12 1015.3 1015.3 0.0
24/04:00pm 13.0 8.7 6.8 66 3.0 SSE 19 26 10 14 1015.1 1015.0 0.0
24/03:30pm 13.0 8.4 5.4 60 3.6 S 19 24 10 13 1014.9 1014.8 0.0
24/03:00pm 13.1 8.6 6.0 62 3.4 S 19 22 10 12 1014.8 1014.7 0.0
24/02:30pm 13.5 8.9 6.4 62 3.4 S 20 24 11 13 1014.6 1014.5 0.0
24/02:00pm 13.8 8.8 4.7 54 4.2 SSW 20 26 11 14 1014.6 1014.5 0.0
24/01:30pm 13.9 9.1 5.5 57 4.0 S 20 28 11 15 1014.5 1014.4 0.0
24/01:00pm 13.9 8.3 5.5 57 4.0 S 24 30 13 16 1014.6 1014.5 0.0
24/12:30pm 14.1 9.0 6.0 58 3.9 SSW 22 28 12 15 1014.9 1014.8 0.0
24/12:00pm 13.5 8.4 6.1 61 3.5 S 22 28 12 15 1015.1 1015.0 0.0
24/11:30am 13.8 8.9 6.7 62 3.4 SSW 22 28 12 15 1015.4 1015.4 0.0
24/11:00am 13.5 8.5 6.4 62 3.4 SSW 22 28 12 15 1015.6 1015.6 0.0
24/10:30am 13.4 8.4 6.3 62 3.4 SW 22 28 12 15 1015.8 1015.8 0.0
24/10:00am 13.0 8.0 6.4 64 3.1 SSW 22 26 12 14 1015.9 1015.9 0.0
24/09:30am 13.2 8.6 6.5 64 3.2 SSW 20 24 11 13 1015.7 1015.7 0.0
24/09:00am 13.6 9.4 8.2 70 2.7 SSW 20 24 11 13 1015.4 1015.4 0.0
24/08:30am 12.9 9.6 8.0 72 2.4 SSW 15 19 8 10 1015.0 1014.9 0.0
24/08:00am 12.6 10.5 8.3 75 2.1 SSW 9 15 5 8 1014.5 1014.4 0.0
24/07:30am 13.5 10.9 6.1 61 3.5 W 9 13 5 7 1014.0 1013.9 0.0
24/07:00am 12.7 9.8 6.5 66 3.0 W 11 13 6 7 1013.3 1013.2 0.0
24/06:30am 12.7 10.1 6.3 65 3.0 W 9 13 5 7 1012.8 1012.8 0.0
24/06:00am 12.7 10.0 5.8 63 3.2 W 9 13 5 7 1012.4 1012.4 0.0
24/05:30am 12.3 9.5 5.2 62 3.3 WNW 9 13 5 7 1012.1 1012.1 0.0
24/05:00am 12.7 9.7 3.9 55 4.0 NW 9 13 5 7 1011.9 1011.9 0.0
24/04:30am 13.1 9.9 2.9 50 4.5 WNW 9 15 5 8 1011.6 1011.6 0.0
24/04:00am 13.1 9.8 4.3 55 4.0 WNW 11 15 6 8 1011.6 1011.6 0.0
24/03:30am 12.5 9.7 5.0 60 3.5 WNW 9 13 5 7 1011.7 1011.7 0.0
24/03:00am 12.4 9.1 4.6 59 3.6 WNW 11 15 6 8 1011.6 1011.6 0.0
24/02:30am 12.8 9.7 3.7 54 4.1 WNW 9 13 5 7 1011.7 1011.7 0.0
24/02:00am 13.0 8.2 2.6 49 4.6 W 17 20 9 11 1011.6 1011.6 0.0
24/01:30am 13.4 8.9 2.0 46 5.0 WNW 15 19 8 10 1011.5 1011.5 0.0
24/01:00am 13.4 9.1 3.5 51 4.5 WNW 15 20 8 11 1011.5 1011.5 0.0
24/12:30am 13.4 9.1 1.1 43 5.3 W 13 19 7 10 1011.7 1011.7 0.0
24/12:00am 13.6 8.6 1.3 43 5.3 W 17 20 9 11 1012.0 1012.0 0.0
 
Date/Time
EST
Temp
°C
App
Temp
°C
Dew
Point
°C
Rel
Hum
%
Delta-T
°C
Wind Press
QNH
hPa
Press
MSL
hPa
Rain since
9am
mm
Dir  Spd
km/h
Gust
km/h
Spd
kts
Gust
kts
23/11:30pm 12.8 8.9 1.2 45 4.9 W 11 15 6 8 1012.2 1012.2 0.0
23/11:00pm 13.3 9.1 1.6 45 5.1 WNW 13 17 7 9 1012.1 1012.1 0.0
23/10:30pm 13.5 8.4 0.9 42 5.4 W 17 22 9 12 1012.2 1012.2 0.0
23/10:00pm 13.6 8.6 1.3 43 5.3 W 17 20 9 11 1011.9 1011.9 0.0
23/09:30pm 13.7 8.4 1.7 44 5.2 W 19 22 10 12 1012.1 1012.1 0.0
23/09:00pm 13.4 8.1 1.7 45 5.1 W 19 22 10 12 1012.1 1012.1 0.0
23/08:30pm 13.8 8.6 2.4 46 5.0 W 19 26 10 14 1011.9 1011.9 0.0
23/08:00pm 14.8 8.2 2.0 42 5.7 W 26 39 14 21 1011.8 1011.8 0.0
23/07:30pm 13.3 10.0 8.0 70 2.6 WSW 15 17 8 9 1011.9 1011.9 0.0
23/07:00pm 12.9 10.3 7.8 71 2.5 W 11 13 6 7 1011.9 1011.9 0.0
23/06:30pm 14.3 12.4 9.1 71 2.7 WNW 9 15 5 8 1012.0 1012.0 0.0
23/06:00pm 14.5 12.0 8.2 66 3.2 NNW 11 15 6 8 1011.9 1011.9 0.0
23/05:30pm 14.4 11.5 6.3 58 3.9 NNW 11 15 6 8 1011.8 1011.8 0.0
23/05:00pm 14.4 11.2 6.7 60 3.7 NNW 13 17 7 9 1012.0 1012.0 0.0
23/04:30pm 14.3 11.3 5.9 57 4.0 N 11 13 6 7 1012.2 1012.2 0.0
23/04:00pm 13.9 11.0 6.3 60 3.7 N 11 15 6 8 1012.4 1012.4 0.0
23/03:30pm 14.1 10.9 5.2 55 4.2 N 11 15 6 8 1012.8 1012.8 0.0
23/03:00pm 14.3 11.1 5.1 54 4.3 N 11 15 6 8 1012.9 1012.9 0.0
23/02:30pm 15.0 12.0 4.1 48 5.0 N 9 15 5 8 1013.3 1013.2 0.0
23/02:00pm 15.4 12.4 4.2 47 5.2 N 9 13 5 7 1013.4 1013.3 0.0
23/01:30pm 15.3 12.5 5.0 50 4.9 N 9 13 5 7 1013.9 1013.8 0.0
23/01:00pm 15.2 13.3 7.5 60 3.8 N 7 13 4 7 1014.2 1014.1 0.0
23/12:30pm 15.0 12.6 8.7 66 3.2 NNW 11 13 6 7 1014.6 1014.5 0.0
23/12:00pm 15.3 12.9 5.2 51 4.8 NNW 7 13 4 7 1015.5 1015.5 0.0
23/11:30am 15.5 12.7 3.3 44 5.6 NW 7 11 4 6 1016.3 1016.3 0.0
23/11:00am 15.4 12.6 5.0 50 4.9 WNW 9 13 5 7 1017.1 1017.1 0.0
23/10:30am 14.4 11.7 7.5 63 3.4 NW 11 15 6 8 1017.8 1017.8 0.0
23/10:00am 14.1 11.6 8.1 67 3.0 WNW 11 13 6 7 1018.0 1018.0 0.0
23/09:30am 13.5 11.1 8.8 73 2.4 WNW 11 15 6 8 1018.6 1018.6 0.0
23/09:00am 12.9 11.0 9.2 78 1.9 WNW 9 13 5 7 1018.7 1018.7 0.0
23/08:30am 11.6 9.7 9.0 84 1.3 WNW 9 13 5 7 1018.7 1018.7 0.0
23/08:00am 11.4 9.6 9.5 88 1.0 W 9 11 5 6 1018.7 1018.7 0.0
23/07:30am 10.7 8.8 9.1 90 0.8 WNW 9 11 5 6 1018.7 1018.7 0.0
23/07:00am 11.1 9.4 9.7 91 0.7 WSW 9 13 5 7 1018.8 1018.8 0.0
23/06:30am 11.1 9.8 9.9 92 0.6 WSW 7 11 4 6 1018.8 1018.8 0.0
23/06:00am 10.8 9.0 9.4 91 0.7 W 9 13 5 7 1018.8 1018.8 0.0
23/05:30am 11.0 9.2 9.6 91 0.7 W 9 13 5 7 1018.8 1018.8 0.0
23/05:00am 11.2 9.4 9.6 90 0.8 W 9 11 5 6 1018.7 1018.7 0.0
23/04:30am 11.6 9.9 10.0 90 0.8 W 9 11 5 6 1019.0 1019.0 0.0
23/04:00am 11.9 10.2 10.0 88 1.0 WSW 9 13 5 7 1019.4 1019.4 0.0
23/03:30am 12.1 10.8 10.0 87 1.1 WSW 7 9 4 5 1019.7 1019.7 0.0
23/03:00am 12.1 10.4 10.0 87 1.1 WSW 9 13 5 7 1020.1 1020.1 0.0
23/02:30am 12.3 10.3 10.2 87 1.1 SW 11 13 6 7 1020.5 1020.5 0.0
23/02:00am 12.8 11.2 10.3 85 1.3 SW 9 13 5 7 1020.7 1020.7 0.0
23/01:30am 12.9 11.7 10.3 84 1.3 WSW 7 11 4 6 1020.9 1020.9 0.0
23/01:00am 13.4 11.9 10.6 83 1.5 WSW 9 13 5 7 1021.0 1021.0 0.0
23/12:30am 13.0 11.3 10.0 82 1.5 SW 9 13 5 7 1021.1 1021.1 0.0
23/12:00am 13.1 11.4 9.7 80 1.7 WSW 9 11 5 6 1021.6 1021.6 0.0
 
Date/Time
EST
Temp
°C
App
Temp
°C
Dew
Point
°C
Rel
Hum
%
Delta-T
°C
Wind Press
QNH
hPa
Press
MSL
hPa
Rain since
9am
mm
Dir  Spd
km/h
Gust
km/h
Spd
kts
Gust
kts
22/11:30pm 13.6 11.6 10.2 80 1.8 WSW 11 15 6 8 1022.4 1022.4 0.0
22/11:00pm 13.6 12.1 10.6 82 1.6 WSW 9 13 5 7 1022.6 1022.6 0.0
22/10:30pm 14.0 12.5 10.6 80 1.8 WSW 9 13 5 7 1022.9 1022.9 0.0
22/10:00pm 14.1 13.1 10.3 78 2.0 SW 6 9 3 5 1023.2 1023.2 0.0
22/09:30pm 14.1 12.8 10.1 77 2.1 SSW 7 9 4 5 1023.3 1023.3 0.0
22/09:00pm 14.2 13.1 9.8 75 2.3 SSW 6 9 3 5 1023.5 1023.5 0.0
22/08:30pm 14.4 14.0 9.6 73 2.5 WSW 2 4 1 2 1023.9 1023.9 0.0
22/08:00pm 14.6 13.7 9.2 70 2.8 NNW 4 6 2 3 1024.0 1024.0 0.0
22/07:30pm 14.4 13.4 9.0 70 2.8 NNW 4 9 2 5 1024.1 1024.1 0.0
22/07:00pm 14.3 12.8 9.1 71 2.6 N 7 9 4 5 1024.1 1024.1 0.0
22/06:30pm 14.2 12.7 9.2 72 2.6 N 7 9 4 5 1024.0 1024.0 0.0
22/06:00pm 14.1 12.6 9.1 72 2.5 NNE 7 11 4 6 1023.8 1023.8 0.0
22/05:30pm 14.1 12.6 9.3 73 2.5 ENE 7 11 4 6 1023.6 1023.6 0.0
22/05:00pm 13.9 12.0 9.1 73 2.4 ENE 9 13 5 7 1023.6 1023.6 0.0
22/04:30pm 13.9 12.0 9.1 73 2.4 E 9 15 5 8 1023.5 1023.5 0.0
22/04:00pm 14.0 12.1 9.0 72 2.5 ENE 9 13 5 7 1023.8 1023.8 0.0
22/03:30pm 13.9 12.0 8.9 72 2.5 E 9 15 5 8 1024.0 1024.0 0.0
22/03:00pm 14.1 12.1 8.7 70 2.7 ENE 9 13 5 7 1024.2 1024.2 0.0
22/02:30pm 14.5 12.5 8.5 67 3.0 ENE 9 13 5 7 1024.3 1024.3 0.0
22/02:00pm 14.6 13.1 9.0 69 2.8 ENE 7 11 4 6 1024.4 1024.4 0.0
22/01:30pm 14.8 13.2 8.7 67 3.1 NE 7 11 4 6 1024.6 1024.6 0.0
22/01:00pm 14.9 13.3 8.8 67 3.1 NNE 7 11 4 6 1025.0 1025.0 0.0
22/12:30pm 14.9 13.3 8.6 66 3.2 NNE 7 11 4 6 1025.3 1025.3 0.0
22/12:00pm 15.1 14.0 8.6 65 3.3 NNE 4 9 2 5 1026.0 1026.0 0.0
22/11:30am 14.8 14.5 8.5 66 3.2 CALM 0 4 0 2 1026.7 1026.7 0.0
22/11:00am 14.5 13.3 8.2 66 3.1 SE 4 9 2 5 1027.1 1027.1 0.0
22/10:30am 14.5 12.9 8.0 65 3.2 SSW 6 9 3 5 1027.6 1027.6 0.0

Latest Capital City Observations: Canberra | Sydney | Melbourne | Brisbane | Adelaide | Perth | Hobart | Darwin

Other Formats:

Comma delimited format used in spreadsheet applications
http://www.bom.gov.au/fwo/IDN60903/IDN60903.94939.axf

JavaScript Object Notation format (JSON) in row-major order
http://www.bom.gov.au/fwo/IDN60903/IDN60903.94939.json